Time;durP1;ratioP1;P1;durP2;ratioP2;P2;SDS_P1;SDS_P2;PMS_P1;PMS_P2;Temp;Humidity;BMP_temperature;BMP_pressure;BME280_temperature;BME280_humidity;BME280_pressure;Samples;Min_cycle;Max_cycle;Signal;HPM_P1;HPM_P2
2022/11/22 00:00:02;;;;;;;;;;;;;;;6.76;100.00;99018.56;5076560;28;19912;-85
2022/11/22 00:02:28;;;;;;;;;;;;;;;6.76;100.00;99014.19;5057530;28;20038;-86
2022/11/22 00:04:53;;;;;;;;;;;;;;;6.76;100.00;99008.97;5040036;28;19987;-86
2022/11/22 00:07:18;;;;;;;;;;;;;;;6.77;100.00;99007.22;5057754;28;19963;-86
2022/11/22 00:09:43;;;;;;;;;;;;;;;6.77;100.00;99012.41;5040243;28;19927;-85
2022/11/22 00:12:09;;;;;;;;;;;;;;;6.77;100.00;99002.88;5055821;28;20027;-85
2022/11/22 00:14:34;;;;;;;;;;;;;;;6.76;100.00;99003.78;5073325;28;19923;-86
2022/11/22 00:16:59;;;;;;;;;;;;;;;6.77;100.00;99007.22;5039170;28;19966;-86
2022/11/22 00:19:24;;;;;;;;;;;;;;;6.77;100.00;99002.88;5058426;28;19924;-86
2022/11/22 00:21:50;;;;;;;;;;;;;;;6.75;100.00;99004.72;5054464;28;20214;-86
2022/11/22 00:24:15;;;;;;;;;;;;;;;6.76;100.00;99010.75;5056903;28;19927;-85
2022/11/22 00:26:40;;;;;;;;;;;;;;;6.76;100.00;99005.53;5041931;28;20147;-85
2022/11/22 00:29:06;;;;;;;;;;;;;;;6.75;100.00;99007.31;5074078;28;20204;-86
2022/11/22 00:31:31;;;;;;;;;;;;;;;6.75;100.00;99004.72;5058115;28;20231;-86
2022/11/22 00:33:56;;;;;;;;;;;;;;;6.76;100.00;99015.94;5075329;28;19916;-85
2022/11/22 00:36:22;;;;;;;;;;;;;;;6.76;100.00;99019.38;5074276;28;19921;-86
2022/11/22 00:38:48;;;;;;;;;;;;;;;6.75;100.00;99017.72;5076583;28;19920;-86
2022/11/22 00:41:13;;;;;;;;;;;;;;;6.76;100.00;99018.56;5076162;28;20247;-86
2022/11/22 00:43:39;;;;;;;;;;;;;;;6.76;100.00;99022.00;5058777;28;20199;-86
2022/11/22 00:46:04;;;;;;;;;;;;;;;6.75;100.00;99020.31;5075400;28;19967;-85
2022/11/22 00:48:29;;;;;;;;;;;;;;;6.76;100.00;99016.78;5076869;28;19947;-85
2022/11/22 00:50:55;;;;;;;;;;;;;;;6.76;100.00;99021.16;5076427;28;19929;-86
2022/11/22 00:53:20;;;;;;;;;;;;;;;6.75;100.00;99029.88;5075768;28;19932;-85
2022/11/22 00:55:45;;;;;;;;;;;;;;;6.76;100.00;99026.34;5057411;28;19920;-86
2022/11/22 00:58:11;;;;;;;;;;;;;;;6.75;100.00;99029.88;5056238;28;19944;-85
2022/11/22 01:00:36;;;;;;;;;;;;;;;6.75;100.00;99024.66;5056372;28;20168;-86
2022/11/22 01:03:02;;;;;;;;;;;;;;;6.74;100.00;99023.84;5054345;28;19947;-85
2022/11/22 01:05:27;;;;;;;;;;;;;;;6.75;100.00;99022.94;5058608;28;19948;-85
2022/11/22 01:07:53;;;;;;;;;;;;;;;6.75;100.00;99014.25;5076638;28;19931;-85
2022/11/22 01:10:18;;;;;;;;;;;;;;;6.74;100.00;99018.63;5076782;28;19940;-86
2022/11/22 01:12:43;;;;;;;;;;;;;;;6.75;100.00;99015.13;5075249;28;20235;-85
2022/11/22 01:15:09;;;;;;;;;;;;;;;6.74;100.00;99010.81;5076856;28;19916;-86
2022/11/22 01:17:35;;;;;;;;;;;;;;;6.73;100.00;99010.00;5076497;28;20002;-86
2022/11/22 01:20:00;;;;;;;;;;;;;;;6.73;100.00;99014.34;5074995;28;19949;-85
2022/11/22 01:22:25;;;;;;;;;;;;;;;6.72;100.00;99016.09;5076802;28;19909;-86
2022/11/22 01:24:50;;;;;;;;;;;;;;;6.73;100.00;99016.94;5070912;28;20127;-86
2022/11/22 01:27:16;;;;;;;;;;;;;;;6.72;100.00;99021.31;5076514;28;20104;-85
2022/11/22 01:29:41;;;;;;;;;;;;;;;6.72;100.00;99023.91;5076570;28;19939;-86
2022/11/22 01:32:06;;;;;;;;;;;;;;;6.72;100.00;99029.13;5059927;28;19946;-85
2022/11/22 01:34:31;;;;;;;;;;;;;;;6.71;100.00;99018.78;5062478;28;20228;-85
2022/11/22 01:36:57;;;;;;;;;;;;;;;6.71;100.00;99024.00;5059464;28;19925;-85
2022/11/22 01:39:22;;;;;;;;;;;;;;;6.70;100.00;99022.34;5051360;28;19917;-86
2022/11/22 01:41:47;;;;;;;;;;;;;;;6.70;100.00;99014.53;5059257;28;19913;-85
2022/11/22 01:44:20;;;;;;;;;;;;;;;6.69;100.00;99008.50;5046426;28;20105;-85
2022/11/22 01:46:46;;;;;;;;;;;;;;;6.69;100.00;99020.63;5062685;28;20200;-85
2022/11/22 01:49:17;;;;;;;;;;;;;;;6.69;100.00;99015.44;5073933;28;19913;-85
2022/11/22 01:51:45;;;;;;;;;;;;;;;6.68;100.00;99022.41;5043002;28;19913;-86
2022/11/22 01:54:14;;;;;;;;;;;;;;;6.67;100.00;99028.50;5076259;28;19916;-86
2022/11/22 01:56:40;;;;;;;;;;;;;;;6.67;100.00;99028.50;5079113;28;19952;-86
2022/11/22 01:59:08;;;;;;;;;;;;;;;6.66;100.00;99034.66;5076285;28;20174;-86
2022/11/22 02:04:36;;;;;;;;;;;;;;;6.66;100.00;99033.84;4920592;28;19987;-87
2022/11/22 02:07:15;;;;;;;;;;;;;;;6.65;100.00;99039.94;5060470;28;19925;-87
2022/11/22 02:09:41;;;;;;;;;;;;;;;6.63;100.00;99037.41;5076475;28;19918;-87
2022/11/22 02:12:07;;;;;;;;;;;;;;;6.63;100.00;99034.81;5041603;28;19917;-87
2022/11/22 02:14:33;;;;;;;;;;;;;;;6.63;100.00;99034.81;5054444;28;19940;-87
2022/11/22 02:16:58;;;;;;;;;;;;;;;6.62;100.00;99024.47;5061318;28;19935;-87
2022/11/22 02:19:29;;;;;;;;;;;;;;;6.62;100.00;99030.56;5079442;28;19987;-87
2022/11/22 02:21:57;;;;;;;;;;;;;;;6.62;100.00;99040.09;5074533;28;20132;-87
2022/11/22 02:24:29;;;;;;;;;;;;;;;6.61;100.00;99043.63;5078831;28;19987;-87
2022/11/22 02:26:54;;;;;;;;;;;;;;;6.61;100.00;99038.44;5079159;28;20287;-87
2022/11/22 02:29:20;;;;;;;;;;;;;;;6.60;100.00;99047.13;5055451;28;20153;-87
2022/11/22 02:31:45;;;;;;;;;;;;;;;6.59;100.00;99045.47;5041731;28;20252;-87
2022/11/22 02:34:11;;;;;;;;;;;;;;;6.58;100.00;99060.22;5040920;28;19924;-87
2022/11/22 02:36:47;;;;;;;;;;;;;;;6.56;100.00;99056.88;5051040;28;20204;-87
2022/11/22 02:39:14;;;;;;;;;;;;;;;6.54;100.00;99063.91;5071561;28;20243;-87
2022/11/22 02:41:40;;;;;;;;;;;;;;;6.53;100.00;99057.88;5060343;28;19927;-87
2022/11/22 02:44:08;;;;;;;;;;;;;;;6.53;100.00;99065.69;5077938;28;20184;-87
2022/11/22 02:46:33;;;;;;;;;;;;;;;6.53;100.00;99073.47;5076409;28;19924;-87
2022/11/22 02:48:58;;;;;;;;;;;;;;;6.53;100.00;99072.63;5078742;28;20166;-87
2022/11/22 02:51:25;;;;;;;;;;;;;;;6.52;100.00;99068.34;5062798;28;20253;-87
2022/11/22 02:53:52;;;;;;;;;;;;;;;6.52;100.00;99064.00;5041579;28;20224;-87
2022/11/22 02:56:18;;;;;;;;;;;;;;;6.52;100.00;99056.19;5056961;28;19917;-87
2022/11/22 02:58:43;;;;;;;;;;;;;;;6.53;100.00;99064.81;5054900;28;19991;-87
2022/11/22 03:01:09;;;;;;;;;;;;;;;6.53;100.00;99070.03;5038990;28;20074;-87
2022/11/22 03:03:34;;;;;;;;;;;;;;;6.52;100.00;99069.19;5040428;28;19917;-87
2022/11/22 03:06:01;;;;;;;;;;;;;;;6.51;100.00;99072.72;5065578;28;20213;-87
2022/11/22 03:08:26;;;;;;;;;;;;;;;6.51;100.00;99074.47;5059455;28;20101;-87
2022/11/22 03:10:51;;;;;;;;;;;;;;;6.49;100.00;99074.56;5065207;28;19924;-87
2022/11/22 03:13:17;;;;;;;;;;;;;;;6.49;100.00;99076.31;5075995;28;20210;-87
2022/11/22 03:15:45;;;;;;;;;;;;;;;6.48;100.00;99080.69;5057836;28;20154;-87
2022/11/22 03:18:10;;;;;;;;;;;;;;;6.47;100.00;99079.00;5056788;28;19952;-87
2022/11/22 03:20:35;;;;;;;;;;;;;;;6.47;100.00;99076.38;5036951;28;19932;-87
2022/11/22 03:23:01;;;;;;;;;;;;;;;6.47;100.00;99081.59;5031630;28;19927;-87
2022/11/22 03:25:26;;;;;;;;;;;;;;;6.47;100.00;99073.78;5056942;28;19925;-87
2022/11/22 03:27:51;;;;;;;;;;;;;;;6.46;100.00;99082.53;5043882;28;19920;-87
2022/11/22 03:30:16;;;;;;;;;;;;;;;6.46;100.00;99084.28;5057872;28;19925;-87
2022/11/22 03:32:42;;;;;;;;;;;;;;;6.45;100.00;99091.22;5052119;28;20000;-85
2022/11/22 03:35:07;;;;;;;;;;;;;;;6.45;100.00;99086.03;5015540;28;19916;-85
2022/11/22 03:37:32;;;;;;;;;;;;;;;6.46;100.00;99076.50;5067733;28;20184;-84
2022/11/22 03:39:58;;;;;;;;;;;;;;;6.45;100.00;99074.78;5037771;28;20121;-85
2022/11/22 03:42:23;;;;;;;;;;;;;;;6.44;100.00;99076.56;5040586;28;20251;-85
2022/11/22 03:44:48;;;;;;;;;;;;;;;6.44;100.00;99078.31;5026115;28;19992;-85
2022/11/22 03:47:14;;;;;;;;;;;;;;;6.44;100.00;99083.50;5040383;28;19921;-85
2022/11/22 03:49:45;;;;;;;;;;;;;;;6.43;100.00;99084.44;5074180;28;19927;-85
2022/11/22 03:52:10;;;;;;;;;;;;;;;6.44;100.00;99086.09;5076354;28;19931;-85
2022/11/22 03:54:35;;;;;;;;;;;;;;;6.42;100.00;99087.94;5077184;28;19920;-85
2022/11/22 03:57:01;;;;;;;;;;;;;;;6.42;100.00;99090.53;5059470;28;19983;-85
2022/11/22 03:59:26;;;;;;;;;;;;;;;6.41;100.00;99089.72;5057117;28;20215;-85
2022/11/22 04:01:51;;;;;;;;;;;;;;;6.42;100.00;99108.75;5045109;28;19924;-85
2022/11/22 04:04:16;;;;;;;;;;;;;;;6.40;100.00;99105.38;5066330;28;19919;-85
2022/11/22 04:06:42;;;;;;;;;;;;;;;6.39;100.00;99108.94;5048250;28;19925;-85
2022/11/22 04:09:07;;;;;;;;;;;;;;;6.39;100.00;99111.53;5076273;28;19921;-85
2022/11/22 04:11:32;;;;;;;;;;;;;;;6.38;100.00;99115.03;5077685;28;19947;-85
2022/11/22 04:16:42;;;;;;;;;;;;;;;6.35;100.00;99105.66;5058023;28;19963;-85
2022/11/22 04:19:07;;;;;;;;;;;;;;;6.34;100.00;99104.78;5070325;28;19912;-85
2022/11/22 04:21:32;;;;;;;;;;;;;;;6.34;100.00;99109.16;5057833;28;19924;-85
2022/11/22 04:26:55;;;;;;;;;;;;;;;6.32;100.00;99117.03;5054362;28;19924;-85
2022/11/22 04:29:21;;;;;;;;;;;;;;;6.31;100.00;99123.16;5058554;28;19919;-85
2022/11/22 04:34:31;;;;;;;;;;;;;;;6.31;100.00;99124.91;5074852;28;19927;-85
2022/11/22 04:36:56;;;;;;;;;;;;;;;6.30;100.00;99123.22;5058455;28;19912;-85
2022/11/22 04:39:22;;;;;;;;;;;;;;;6.29;100.00;99124.13;5072593;28;19909;-85
2022/11/22 04:44:39;;;;;;;;;;;;;;;6.27;100.00;99123.38;5077816;28;19944;-85
2022/11/22 04:44:41;;;;;;;;;;;;;;;6.27;100.00;99134.59;5062032;28;20169;-85
2022/11/22 04:47:07;;;;;;;;;;;;;;;6.27;100.00;99123.38;5057229;28;19971;-85
2022/11/22 04:49:32;;;;;;;;;;;;;;;6.26;100.00;99127.75;5056262;28;19920;-85
2022/11/22 04:54:41;;;;;;;;;;;;;;;6.24;100.00;99137.38;5061546;28;19947;-85
2022/11/22 04:57:07;;;;;;;;;;;;;;;6.24;100.00;99126.13;5076334;28;20212;-85
2022/11/22 04:59:32;;;;;;;;;;;;;;;6.24;100.00;99137.38;5042525;28;19924;-85
2022/11/22 05:01:57;;;;;;;;;;;;;;;6.23;100.00;99130.50;5058725;28;19962;-85
2022/11/22 05:04:22;;;;;;;;;;;;;;;6.23;100.00;99137.44;5076069;28;19928;-85
2022/11/22 05:06:48;;;;;;;;;;;;;;;6.22;100.00;99139.22;5058705;28;19983;-85
2022/11/22 05:09:14;;;;;;;;;;;;;;;6.22;100.00;99138.34;5076085;28;19920;-86
2022/11/22 05:11:39;;;;;;;;;;;;;;;6.22;100.00;99144.41;5073791;28;20204;-85
2022/11/22 05:14:04;;;;;;;;;;;;;;;6.21;100.00;99142.72;5040786;28;20120;-85
2022/11/22 05:16:29;;;;;;;;;;;;;;;6.21;100.00;99140.13;5058742;28;19932;-85
2022/11/22 05:18:57;;;;;;;;;;;;;;;6.19;100.00;99134.16;5080818;28;19916;-85
2022/11/22 05:21:23;;;;;;;;;;;;;;;6.19;100.00;99133.34;5054627;28;19921;-85
2022/11/22 05:23:54;;;;;;;;;;;;;;;6.20;100.00;99146.22;5080931;28;19913;-84
2022/11/22 05:26:20;;;;;;;;;;;;;;;6.19;100.00;99144.56;5046030;28;20380;-85
2022/11/22 05:28:45;;;;;;;;;;;;;;;6.19;100.00;99136.75;5080747;28;19923;-85
2022/11/22 05:31:15;;;;;;;;;;;;;;;6.19;100.00;99146.31;5079512;28;19976;-85
2022/11/22 05:33:41;;;;;;;;;;;;;;;6.19;100.00;99148.94;5063098;28;20238;-85
2022/11/22 05:36:07;;;;;;;;;;;;;;;6.18;100.00;99147.22;5066046;28;19915;-85
2022/11/22 05:38:34;;;;;;;;;;;;;;;6.19;100.00;99138.53;5060898;28;20150;-85
2022/11/22 05:40:59;;;;;;;;;;;;;;;6.18;100.00;99148.06;5066310;28;19920;-85
2022/11/22 05:43:26;;;;;;;;;;;;;;;6.18;100.00;99142.03;5078713;28;19957;-85
2022/11/22 05:45:51;;;;;;;;;;;;;;;6.18;100.00;99142.88;5080393;28;20111;-85
2022/11/22 05:48:16;;;;;;;;;;;;;;;6.18;100.00;99134.25;5061447;28;19999;-85
2022/11/22 05:50:41;;;;;;;;;;;;;;;6.18;100.00;99139.44;5062522;28;20207;-85
2022/11/22 05:53:07;;;;;;;;;;;;;;;6.18;100.00;99139.44;5067975;28;20353;-85
2022/11/22 05:55:32;;;;;;;;;;;;;;;6.17;100.00;99141.19;5068954;28;19927;-85
2022/11/22 05:58:00;;;;;;;;;;;;;;;6.16;100.00;99136.91;5045002;28;19951;-85
2022/11/22 06:00:26;;;;;;;;;;;;;;;6.16;100.00;99136.91;5080558;28;19927;-85
2022/11/22 06:02:51;;;;;;;;;;;;;;;6.16;100.00;99136.91;5079517;28;19920;-85
2022/11/22 06:05:16;;;;;;;;;;;;;;;6.16;100.00;99131.72;5078929;28;19971;-85
2022/11/22 06:07:42;;;;;;;;;;;;;;;6.15;100.00;99133.47;5079921;28;20191;-85
2022/11/22 06:10:07;;;;;;;;;;;;;;;6.15;100.00;99136.06;5040684;28;19917;-86
2022/11/22 06:12:32;;;;;;;;;;;;;;;6.15;100.00;99133.47;5078794;28;20158;-86
2022/11/22 06:14:58;;;;;;;;;;;;;;;6.16;100.00;99134.31;5061996;28;19948;-85
2022/11/22 06:17:23;;;;;;;;;;;;;;;6.14;100.00;99126.59;5061541;28;19919;-85
2022/11/22 06:19:48;;;;;;;;;;;;;;;6.15;100.00;99130.03;5045493;28;19916;-85
2022/11/22 06:22:14;;;;;;;;;;;;;;;6.13;100.00;99118.84;5078088;28;20147;-85
2022/11/22 06:24:39;;;;;;;;;;;;;;;6.15;100.00;99130.03;5055182;28;20150;-85
2022/11/22 06:27:04;;;;;;;;;;;;;;;6.13;100.00;99119.72;5039961;28;19927;-85
2022/11/22 06:29:29;;;;;;;;;;;;;;;6.13;100.00;99132.72;5078160;28;19929;-85
2022/11/22 06:31:55;;;;;;;;;;;;;;;6.13;100.00;99121.44;5061707;28;20015;-85
2022/11/22 06:34:20;;;;;;;;;;;;;;;6.12;100.00;99122.38;5043659;28;19991;-85
2022/11/22 06:36:45;;;;;;;;;;;;;;;6.12;100.00;99118.03;5047070;28;19920;-85
2022/11/22 06:39:11;;;;;;;;;;;;;;;6.11;100.00;99118.97;5051656;28;19916;-85
2022/11/22 06:41:36;;;;;;;;;;;;;;;6.12;100.00;99122.38;5060781;28;19991;-85
2022/11/22 06:44:07;;;;;;;;;;;;;;;6.11;100.00;99124.16;5055305;28;19924;-85
2022/11/22 06:46:33;;;;;;;;;;;;;;;6.11;100.00;99121.56;5054103;28;19920;-85
2022/11/22 06:49:01;;;;;;;;;;;;;;;6.11;100.00;99116.34;5056261;28;19927;-86
2022/11/22 06:51:28;;;;;;;;;;;;;;;6.11;100.00;99118.97;5044254;28;19924;-86
2022/11/22 06:53:56;;;;;;;;;;;;;;;6.09;100.00;99123.41;5060608;28;19962;-86
2022/11/22 06:56:22;;;;;;;;;;;;;;;6.09;100.00;99128.59;5060899;28;19921;-85
2022/11/22 06:58:48;;;;;;;;;;;;;;;6.09;100.00;99125.13;5067253;28;19992;-86
2022/11/22 07:01:14;;;;;;;;;;;;;;;6.10;100.00;99121.63;5054912;28;19934;-85
2022/11/22 07:03:40;;;;;;;;;;;;;;;6.08;100.00;99136.47;5061039;28;19908;-85
2022/11/22 07:06:07;;;;;;;;;;;;;;;6.07;100.00;99139.97;5067511;28;19934;-86
2022/11/22 07:08:33;;;;;;;;;;;;;;;6.07;100.00;99134.75;5078501;28;19917;-86
2022/11/22 07:11:06;;;;;;;;;;;;;;;6.07;100.00;99137.38;5059775;28;19924;-86
2022/11/22 07:13:32;;;;;;;;;;;;;;;6.06;100.00;99133.09;5060489;28;20235;-85
2022/11/22 07:15:58;;;;;;;;;;;;;;;6.06;100.00;99139.13;5059933;28;19920;-85
2022/11/22 07:18:24;;;;;;;;;;;;;;;6.07;100.00;99133.00;5062998;28;19919;-85
2022/11/22 07:20:49;;;;;;;;;;;;;;;6.08;100.00;99139.06;5055379;28;20124;-86
2022/11/22 07:23:15;;;;;;;;;;;;;;;6.07;100.00;99137.38;5052992;28;19963;-85
2022/11/22 07:25:47;;;;;;;;;;;;;;;6.07;100.00;99133.00;5048358;28;19931;-86
2022/11/22 07:28:14;;;;;;;;;;;;;;;6.07;100.00;99135.59;5066384;28;19943;-85
2022/11/22 07:30:39;;;;;;;;;;;;;;;6.08;100.00;99139.91;5050539;28;19958;-85
2022/11/22 07:33:05;;;;;;;;;;;;;;;6.08;100.00;99132.09;5057280;28;20266;-86
2022/11/22 07:35:32;;;;;;;;;;;;;;;6.08;100.00;99126.06;5041560;28;21089;-86
2022/11/22 07:37:58;;;;;;;;;;;;;;;6.07;100.00;99125.19;5075315;28;19966;-86
2022/11/22 07:40:23;;;;;;;;;;;;;;;6.06;100.00;99135.69;5042626;28;20208;-85
2022/11/22 07:42:48;;;;;;;;;;;;;;;6.07;100.00;99139.97;5043061;28;19920;-85
2022/11/22 07:45:14;;;;;;;;;;;;;;;6.07;100.00;99140.78;5039328;28;19950;-85
2022/11/22 07:47:39;;;;;;;;;;;;;;;6.07;100.00;99147.75;5050596;28;20119;-86
2022/11/22 07:50:31;;;;;;;;;;;;;;;6.08;100.00;99141.66;5063555;28;19927;-86
2022/11/22 07:52:56;;;;;;;;;;;;;;;6.08;100.00;99149.47;5064043;28;19924;-85
2022/11/22 07:55:39;;;;;;;;;;;;;;;6.08;100.00;99152.06;5042263;28;19926;-86
2022/11/22 07:58:05;;;;;;;;;;;;;;;6.08;100.00;99149.47;5075237;28;19940;-85
2022/11/22 08:00:30;;;;;;;;;;;;;;;6.07;100.00;99151.19;5058802;28;19936;-85
2022/11/22 08:02:56;;;;;;;;;;;;;;;6.07;100.00;99152.97;5040654;28;19931;-85
2022/11/22 08:05:21;;;;;;;;;;;;;;;6.08;100.00;99149.47;5054219;28;19924;-85
2022/11/22 08:07:47;;;;;;;;;;;;;;;6.08;100.00;99158.09;5052121;28;20253;-85
2022/11/22 08:10:13;;;;;;;;;;;;;;;6.08;100.00;99162.44;5082927;28;19923;-85
2022/11/22 08:12:38;;;;;;;;;;;;;;;6.09;100.00;99166.72;5041421;28;19928;-85
2022/11/22 08:15:04;;;;;;;;;;;;;;;6.08;100.00;99163.28;5073384;28;19921;-85
2022/11/22 08:17:29;;;;;;;;;;;;;;;6.06;100.00;99167.72;5060371;28;20201;-85
2022/11/22 08:19:54;;;;;;;;;;;;;;;6.06;100.00;99172.91;5055698;28;19920;-85
2022/11/22 08:22:19;;;;;;;;;;;;;;;6.08;100.00;99167.66;5054003;28;20274;-85
2022/11/22 08:24:45;;;;;;;;;;;;;;;6.08;100.00;99172.84;5054383;28;19925;-85
2022/11/22 08:27:10;;;;;;;;;;;;;;;6.08;100.00;99178.88;5050101;28;20200;-85
2022/11/22 08:29:36;;;;;;;;;;;;;;;6.09;100.00;99174.50;5057472;28;20158;-85
2022/11/22 08:32:01;;;;;;;;;;;;;;;6.08;100.00;99186.69;5059944;28;19925;-85
2022/11/22 08:34:26;;;;;;;;;;;;;;;6.09;100.00;99182.31;5036727;28;20238;-85
2022/11/22 08:36:51;;;;;;;;;;;;;;;6.08;100.00;99178.03;5042521;28;19920;-85
2022/11/22 08:39:17;;;;;;;;;;;;;;;6.08;100.00;99196.25;5078877;28;19920;-85
2022/11/22 08:41:42;;;;;;;;;;;;;;;6.08;100.00;99198.84;5079684;28;19930;-85
2022/11/22 08:44:09;;;;;;;;;;;;;;;6.08;100.00;99191.88;5061672;28;19924;-85
2022/11/22 08:46:34;;;;;;;;;;;;;;;6.07;100.00;99194.53;5052139;28;19920;-86
2022/11/22 08:49:02;;;;;;;;;;;;;;;6.06;100.00;99182.47;5041832;28;19936;-85
2022/11/22 08:51:27;;;;;;;;;;;;;;;6.07;100.00;99195.38;5049351;28;19992;-85
2022/11/22 08:53:53;;;;;;;;;;;;;;;6.08;100.00;99191.03;5073668;28;20123;-86
2022/11/22 08:56:18;;;;;;;;;;;;;;;6.09;100.00;99187.50;5055348;28;20131;-86
2022/11/22 08:58:43;;;;;;;;;;;;;;;6.09;100.00;99188.38;5056675;28;20134;-85
2022/11/22 09:01:13;;;;;;;;;;;;;;;6.11;100.00;99196.06;5054061;28;19947;-85
2022/11/22 09:03:39;;;;;;;;;;;;;;;6.11;100.00;99196.06;5055525;28;19949;-85
2022/11/22 09:06:05;;;;;;;;;;;;;;;6.12;100.00;99197.75;5081837;28;19938;-85
2022/11/22 09:08:31;;;;;;;;;;;;;;;6.12;100.00;99205.56;5072131;28;19987;-85
2022/11/22 09:11:04;;;;;;;;;;;;;;;6.13;100.00;99207.22;5075146;28;19925;-86
2022/11/22 09:13:29;;;;;;;;;;;;;;;6.13;100.00;99215.03;5071668;28;20270;-85
2022/11/22 09:15:59;;;;;;;;;;;;;;;6.13;100.00;99209.81;5061618;28;19979;-85
2022/11/22 09:18:24;;;;;;;;;;;;;;;6.14;100.00;99208.94;5057763;28;20097;-85
2022/11/22 09:20:55;;;;;;;;;;;;;;;6.14;100.00;99211.53;5075127;28;19927;-85
2022/11/22 09:23:21;;;;;;;;;;;;;;;6.15;100.00;99215.81;5065644;28;19924;-85
2022/11/22 09:25:47;;;;;;;;;;;;;;;6.15;100.00;99211.44;5054992;28;19927;-85
2022/11/22 09:28:12;;;;;;;;;;;;;;;6.17;100.00;99218.31;5071274;28;19912;-86
2022/11/22 09:30:37;;;;;;;;;;;;;;;6.17;100.00;99211.38;5053806;28;19926;-86
2022/11/22 09:33:03;;;;;;;;;;;;;;;6.17;100.00;99211.38;5071629;28;19952;-86
2022/11/22 09:35:29;;;;;;;;;;;;;;;6.17;100.00;99208.78;5065531;28;19946;-88
2022/11/22 09:37:55;;;;;;;;;;;;;;;6.17;100.00;99213.97;5082548;28;19920;-87
2022/11/22 09:40:20;;;;;;;;;;;;;;;6.18;100.00;99218.25;5063857;28;20238;-86
2022/11/22 09:42:55;;;;;;;;;;;;;;;6.19;100.00;99221.72;5067203;28;19924;-86
2022/11/22 09:45:30;;;;;;;;;;;;;;;6.19;100.00;99217.34;5058486;28;19924;-86
2022/11/22 09:48:11;;;;;;;;;;;;;;;6.20;100.00;99215.59;5055532;28;19947;-86
2022/11/22 09:50:47;;;;;;;;;;;;;;;6.19;100.00;99219.94;5068698;28;20149;-86
2022/11/22 09:53:19;;;;;;;;;;;;;;;6.21;100.00;99207.72;5071871;28;19927;-86
2022/11/22 09:55:45;;;;;;;;;;;;;;;6.23;100.00;99224.06;5063754;28;20150;-86
2022/11/22 09:58:11;;;;;;;;;;;;;;;6.23;100.00;99221.47;5069116;28;19932;-86
2022/11/22 10:00:36;;;;;;;;;;;;;;;6.25;100.00;99226.59;5077015;28;20209;-86
2022/11/22 10:03:09;;;;;;;;;;;;;;;6.26;100.00;99223.09;5051629;28;20257;-86
2022/11/22 10:05:48;;;;;;;;;;;;;;;6.26;100.00;99226.53;5060740;28;19920;-86
2022/11/22 10:08:36;;;;;;;;;;;;;;;6.26;100.00;99226.53;5043171;28;20261;-86
2022/11/22 10:11:08;;;;;;;;;;;;;;;6.27;100.00;99225.59;5050568;28;19921;-86
2022/11/22 10:13:37;;;;;;;;;;;;;;;6.29;100.00;99230.72;5069735;28;19917;-86
2022/11/22 10:16:09;;;;;;;;;;;;;;;6.29;100.00;99235.94;5065446;28;20238;-86
2022/11/22 10:18:40;;;;;;;;;;;;;;;6.28;100.00;99224.69;5074934;28;19955;-86
2022/11/22 10:21:09;;;;;;;;;;;;;;;6.29;100.00;99230.72;5074277;28;19944;-86
2022/11/22 10:23:34;;;;;;;;;;;;;;;6.29;100.00;99218.59;5061747;28;20112;-86
2022/11/22 10:26:03;;;;;;;;;;;;;;;6.30;100.00;99222.84;5078757;28;20230;-86
2022/11/22 10:28:41;;;;;;;;;;;;;;;6.31;100.00;99221.97;5057946;28;20198;-86
2022/11/22 10:31:14;;;;;;;;;;;;;;;6.32;100.00;99215.00;5054125;28;19920;-86
2022/11/22 10:33:44;;;;;;;;;;;;;;;6.32;100.00;99215.81;5075897;28;19924;-86
2022/11/22 10:36:10;;;;;;;;;;;;;;;6.33;100.00;99211.44;5053906;28;19942;-86
2022/11/22 10:38:53;;;;;;;;;;;;;;;6.33;100.00;99199.31;5055767;28;20409;-86
2022/11/22 10:41:28;;;;;;;;;;;;;;;6.35;100.00;99204.44;5071110;28;19916;-86
2022/11/22 10:43:53;;;;;;;;;;;;;;;6.35;100.00;99207.03;5055004;28;20178;-86
2022/11/22 10:46:29;;;;;;;;;;;;;;;6.36;100.00;99210.47;5077472;28;19932;-86
2022/11/22 10:49:02;;;;;;;;;;;;;;;6.35;100.00;99209.66;5055637;28;20236;-86
2022/11/22 10:51:45;;;;;;;;;;;;;;;6.36;100.00;99202.69;5060180;28;20004;-86
2022/11/22 10:54:30;;;;;;;;;;;;;;;6.37;100.00;99196.53;5051808;28;19948;-86
2022/11/22 10:57:02;;;;;;;;;;;;;;;6.38;100.00;99193.88;5072855;28;20043;-86
2022/11/22 10:59:33;;;;;;;;;;;;;;;6.39;100.00;99186.94;5052106;28;19920;-86
2022/11/22 11:02:11;;;;;;;;;;;;;;;6.39;100.00;99177.38;5060075;28;20135;-86
2022/11/22 11:04:38;;;;;;;;;;;;;;;6.40;100.00;99181.63;5049670;28;19912;-86
2022/11/22 11:07:05;;;;;;;;;;;;;;;6.41;100.00;99193.72;5057587;28;19916;-86
2022/11/22 11:09:30;;;;;;;;;;;;;;;6.42;100.00;99181.56;5056489;28;19924;-86
2022/11/22 11:11:55;;;;;;;;;;;;;;;6.43;100.00;99188.47;5064021;28;19947;-86
2022/11/22 11:14:34;;;;;;;;;;;;;;;6.44;100.00;99190.13;5060065;28;19979;-86
2022/11/22 11:17:00;;;;;;;;;;;;;;;6.44;100.00;99196.19;5065274;28;19916;-86
2022/11/22 11:19:27;;;;;;;;;;;;;;;6.45;100.00;99202.22;5043447;28;19920;-86
2022/11/22 11:21:56;;;;;;;;;;;;;;;6.45;100.00;99191.81;5057291;28;20200;-86
2022/11/22 11:24:21;;;;;;;;;;;;;;;6.46;100.00;99193.50;5073043;28;19909;-86
2022/11/22 11:26:53;;;;;;;;;;;;;;;6.46;100.00;99189.16;5059467;28;19920;-86
2022/11/22 11:29:28;;;;;;;;;;;;;;;6.48;100.00;99191.69;5076871;28;19923;-86
2022/11/22 11:32:05;;;;;;;;;;;;;;;6.49;100.00;99183.81;5058861;28;19932;-86
2022/11/22 11:34:31;;;;;;;;;;;;;;;6.49;100.00;99188.13;5059641;28;19962;-86
2022/11/22 11:36:57;;;;;;;;;;;;;;;6.50;100.00;99174.22;5058671;28;20131;-86
2022/11/22 11:39:26;;;;;;;;;;;;;;;6.50;100.00;99167.25;5057792;28;20226;-86
2022/11/22 11:41:51;;;;;;;;;;;;;;;6.51;100.00;99173.28;5073170;28;20167;-86
2022/11/22 11:44:27;;;;;;;;;;;;;;;6.51;100.00;99168.09;5057280;28;19999;-88
2022/11/22 11:46:53;;;;;;;;;;;;;;;6.52;100.00;99161.97;5055449;28;19970;-86
2022/11/22 11:49:23;;;;;;;;;;;;;;;6.52;100.00;99175.81;5040786;28;19924;-86
2022/11/22 11:51:54;;;;;;;;;;;;;;;6.53;100.00;99174.06;5051464;28;20120;-86
2022/11/22 11:54:21;;;;;;;;;;;;;;;6.54;100.00;99173.16;5067364;28;19923;-86
2022/11/22 11:56:56;;;;;;;;;;;;;;;6.55;100.00;99174.84;5067009;28;19957;-86
2022/11/22 11:59:24;;;;;;;;;;;;;;;6.56;100.00;99163.50;5058121;28;19920;-86
2022/11/22 12:02:09;;;;;;;;;;;;;;;6.57;100.00;99165.19;5074973;28;19916;-86
2022/11/22 12:04:43;;;;;;;;;;;;;;;6.56;100.00;99166.09;5070053;28;19908;-86
2022/11/22 12:07:23;;;;;;;;;;;;;;;6.57;100.00;99160.00;5070687;28;19928;-86
2022/11/22 12:09:50;;;;;;;;;;;;;;;6.58;100.00;99161.66;5057523;28;19959;-86
2022/11/22 12:12:34;;;;;;;;;;;;;;;6.59;100.00;99158.16;5072483;28;19920;-86
2022/11/22 12:15:18;;;;;;;;;;;;;;;6.60;100.00;99161.59;5067782;28;19908;-86
2022/11/22 12:17:49;;;;;;;;;;;;;;;6.61;100.00;99153.72;5065199;28;20298;-86
2022/11/22 12:20:20;;;;;;;;;;;;;;;6.62;100.00;99163.22;5070234;28;19983;-86
2022/11/22 12:23:01;;;;;;;;;;;;;;;6.63;100.00;99156.25;5059287;28;19962;-86
2022/11/22 12:25:30;;;;;;;;;;;;;;;6.63;100.00;99157.06;5055511;28;19956;-86
2022/11/22 12:28:09;;;;;;;;;;;;;;;6.64;100.00;99163.09;5066545;28;19919;-86
2022/11/22 12:30:38;;;;;;;;;;;;;;;6.64;100.00;99158.78;5072213;28;19939;-86
2022/11/22 12:33:05;;;;;;;;;;;;;;;6.65;100.00;99165.63;5057679;28;20119;-86
2022/11/22 12:35:36;;;;;;;;;;;;;;;6.66;100.00;99166.50;5066684;28;19987;-86
2022/11/22 12:38:22;;;;;;;;;;;;;;;6.66;100.00;99167.34;5057266;28;19921;-86
2022/11/22 12:40:53;;;;;;;;;;;;;;;6.67;100.00;99162.97;5067922;28;19954;-86
2022/11/22 12:43:21;;;;;;;;;;;;;;;6.69;100.00;99167.19;5075879;28;19958;-86
2022/11/22 12:45:51;;;;;;;;;;;;;;;6.69;100.00;99163.72;5072726;28;19928;-86
2022/11/22 12:48:24;;;;;;;;;;;;;;;6.70;100.00;99173.22;5073342;28;19994;-86
2022/11/22 12:50:54;;;;;;;;;;;;;;;6.71;100.00;99165.34;5054641;28;19920;-86
2022/11/22 12:53:26;;;;;;;;;;;;;;;6.70;100.00;99168.84;5058061;28;20148;-86
2022/11/22 12:55:58;;;;;;;;;;;;;;;6.71;100.00;99170.53;5074415;28;19924;-86
2022/11/22 12:58:30;;;;;;;;;;;;;;;6.72;100.00;99160.97;5070709;28;19921;-86
2022/11/22 13:01:08;;;;;;;;;;;;;;;6.72;100.00;99156.59;5076144;28;19915;-86
2022/11/22 13:03:41;;;;;;;;;;;;;;;6.72;100.00;99164.41;5057705;28;20152;-86